Time;durP1;ratioP1;P1;durP2;ratioP2;P2;SDS_P1;SDS_P2;PMS_P1;PMS_P2;Temp;Humidity;BMP_temperature;BMP_pressure;BME280_temperature;BME280_humidity;BME280_pressure;Samples;Min_cycle;Max_cycle;Signal;HPM_P1;HPM_P2
2021/06/13 00:04:06;;;;;;;13.68;4.22;;;;;;;11.51;70.70;101732.06;4885241;29;20523;-92
2021/06/13 00:09:43;;;;;;;8.90;3.17;;;;;;;11.44;71.13;101735.53;4870045;29;20044;-94
2021/06/13 00:14:59;;;;;;;10.95;4.60;;;;;;;11.39;71.50;101741.66;4869321;29;20060;-93
2021/06/13 00:17:31;;;;;;;12.93;3.92;;;;;;;11.37;71.88;101738.13;4861274;29;20039;-90
2021/06/13 00:19:58;;;;;;;14.68;4.25;;;;;;;11.35;72.25;101738.97;4867757;29;20341;-93
2021/06/13 00:28:01;;;;;;;11.15;4.13;;;;;;;11.21;72.74;101731.94;4915013;29;20020;-91
2021/06/13 00:36:05;;;;;;;7.97;3.78;;;;;;;11.06;73.72;101745.81;4883734;29;20576;-93
2021/06/13 00:38:42;;;;;;;10.05;4.35;;;;;;;11.01;74.22;101737.03;4884731;29;20165;-92
2021/06/13 00:44:12;;;;;;;11.10;4.05;;;;;;;10.99;74.39;101749.25;4892371;29;20032;-93
2021/06/13 00:47:14;;;;;;;9.93;3.67;;;;;;;10.94;74.68;101756.22;4885008;29;20059;-93
2021/06/13 00:49:41;;;;;;;8.00;4.53;;;;;;;10.91;75.08;101757.06;4850946;29;20091;-92
2021/06/13 00:55:16;;;;;;;9.02;3.72;;;;;;;10.93;75.11;101746.59;4890290;29;20111;-93
2021/06/13 00:57:42;;;;;;;9.65;4.00;;;;;;;10.97;74.99;101739.63;4878480;29;20076;-92
2021/06/13 01:00:13;;;;;;;8.10;4.32;;;;;;;11.00;74.55;101748.41;4886168;29;20052;-94
2021/06/13 01:02:50;;;;;;;8.48;3.58;;;;;;;10.99;74.88;101757.13;4870748;29;20088;-92
2021/06/13 01:14:43;;;;;;;8.32;4.03;;;;;;;10.83;75.74;101768.34;4877245;29;20125;-93
2021/06/13 01:17:30;;;;;;;10.80;4.40;;;;;;;10.82;76.31;101769.19;4873421;29;20134;-94
2021/06/13 01:24:08;;;;;;;9.63;3.78;;;;;;;10.74;76.55;101772.66;4870474;29;20052;-94
2021/06/13 01:30:16;;;;;;;8.70;3.88;;;;;;;10.63;76.52;101763.81;4870574;29;20056;-93
2021/06/13 01:33:19;;;;;;;12.52;4.53;;;;;;;10.58;77.61;101771.63;4879099;29;20056;-92
2021/06/13 01:36:10;;;;;;;15.38;4.70;;;;;;;10.54;77.31;101777.69;4881287;29;20052;-93
2021/06/13 01:47:10;;;;;;;9.82;4.65;;;;;;;10.39;77.83;101780.16;4877696;29;20055;-92
2021/06/13 01:49:42;;;;;;;14.88;5.00;;;;;;;10.35;78.63;101786.19;4876847;29;20138;-91
2021/06/13 01:52:31;;;;;;;11.27;5.28;;;;;;;10.30;78.76;101778.31;4912067;28;20603;-92
2021/06/13 01:57:45;;;;;;;5.75;3.60;;;;;;;10.17;78.68;101777.31;4913677;29;20583;-90
2021/06/13 02:09:22;;;;;;;12.18;3.95;;;;;;;9.97;80.42;101786.66;4912318;29;20076;-91
2021/06/13 02:14:47;;;;;;;11.32;3.90;;;;;;;9.90;80.27;101785.72;4912917;29;20051;-94
2021/06/13 02:17:18;;;;;;;15.50;4.63;;;;;;;9.83;80.18;101784.75;4890920;29;20060;-91
2021/06/13 02:20:00;;;;;;;7.70;4.07;;;;;;;9.78;80.25;101789.06;4906562;29;20084;-92
2021/06/13 02:22:31;;;;;;;8.18;4.07;;;;;;;9.72;80.04;101786.34;4874142;29;20537;-91
2021/06/13 02:25:12;;;;;;;11.23;4.43;;;;;;;9.69;80.60;101794.19;4899006;29;20040;-90
2021/06/13 02:27:39;;;;;;;8.88;4.03;;;;;;;9.67;80.75;101790.66;4882169;29;20048;-92
2021/06/13 02:30:17;;;;;;;10.80;3.97;;;;;;;9.60;80.97;101790.56;4901524;29;20080;-91
2021/06/13 02:39:26;;;;;;;12.02;4.28;;;;;;;9.51;80.80;101807.88;4892751;29;20051;-92
2021/06/13 02:41:55;;;;;;;9.57;3.80;;;;;;;9.49;80.96;101814.78;4881828;29;20140;-93
2021/06/13 02:50:28;;;;;;;7.75;3.88;;;;;;;9.38;81.34;101827.72;4904594;29;20047;-92
2021/06/13 02:53:32;;;;;;;10.63;4.05;;;;;;;9.36;81.41;101818.97;4865931;29;20056;-93
2021/06/13 03:08:15;;;;;;;14.13;3.90;;;;;;;9.31;81.63;101834.59;4874621;29;20081;-93
2021/06/13 03:19:10;;;;;;;7.72;4.18;;;;;;;9.28;81.53;101839.75;4882226;29;20144;-92
2021/06/13 03:42:23;;;;;;;7.93;4.30;;;;;;;9.18;82.23;101864.88;4867289;29;20463;-93
2021/06/13 03:59:05;;;;;;;16.52;4.90;;;;;;;9.25;82.42;101863.22;4861107;29;20049;-92
2021/06/13 04:10:48;;;;;;;9.93;4.72;;;;;;;9.43;82.23;101880.94;4872668;29;20060;-92
2021/06/13 04:13:16;;;;;;;9.30;4.65;;;;;;;9.47;81.90;101884.50;4872101;29;20165;-93
2021/06/13 04:15:57;;;;;;;9.48;5.10;;;;;;;9.49;81.60;101881.03;4867461;29;20464;-94
2021/06/13 04:18:41;;;;;;;7.40;4.43;;;;;;;9.49;81.62;101882.75;4869834;29;20056;-93
2021/06/13 04:26:47;;;;;;;14.32;4.40;;;;;;;9.76;80.92;101880.56;4863052;29;20052;-95
2021/06/13 04:32:17;;;;;;;8.48;4.53;;;;;;;9.99;80.03;101885.22;4885817;29;20047;-92
2021/06/13 04:34:52;;;;;;;7.07;3.90;;;;;;;10.08;79.53;101871.41;4903261;29;20107;-94
2021/06/13 04:37:22;;;;;;;7.45;3.90;;;;;;;10.11;79.08;101881.88;4880288;29;20056;-92
2021/06/13 04:42:33;;;;;;;;;;;;;;;10.06;79.53;101887.06;4862486;29;20061;-93
2021/06/13 04:45:06;;;;;;;11.00;4.75;;;;;;;10.09;79.32;101892.34;4878956;29;19930;-92
2021/06/13 04:50:39;;;;;;;15.20;4.40;;;;;;;10.17;79.19;101891.53;4902302;29;20048;-90
2021/06/13 04:59:43;;;;;;;12.55;5.93;;;;;;;10.34;78.78;101896.97;4885696;29;20125;-92
2021/06/13 05:10:56;;;;;;;10.30;4.80;;;;;;;10.67;78.03;101909.63;4896317;29;20060;-93
2021/06/13 05:19:29;;;;;;;7.90;3.47;;;;;;;10.97;77.18;101909.94;4884907;29;20136;-92
2021/06/13 05:22:09;;;;;;;13.55;6.45;;;;;;;11.07;76.95;101906.53;4884564;29;20541;-93
2021/06/13 05:27:27;;;;;;;7.55;4.07;;;;;;;11.29;75.56;101915.47;4898322;29;20103;-91
2021/06/13 05:32:39;;;;;;;9.38;4.28;;;;;;;11.46;75.19;101928.72;4841265;29;20056;-93
2021/06/13 05:49:56;;;;;;;6.47;3.22;;;;;;;11.89;73.34;101934.25;4868891;29;20100;-91
2021/06/13 05:52:31;;;;;;;8.98;4.07;;;;;;;12.01;72.38;101938.72;4880575;29;20056;-92
2021/06/13 05:54:59;;;;;;;9.55;3.53;;;;;;;12.10;72.54;101935.28;4872531;29;20067;-91
2021/06/13 06:03:19;;;;;;;6.93;3.65;;;;;;;12.96;69.39;101947.84;4861536;29;20116;-92
2021/06/13 06:05:50;;;;;;;8.57;3.90;;;;;;;13.18;68.62;101945.22;4864670;29;20068;-92
2021/06/13 06:08:44;;;;;;;9.80;3.75;;;;;;;13.43;67.92;101945.28;4889608;29;20044;-91
2021/06/13 06:11:19;;;;;;;11.38;3.20;;;;;;;13.68;67.20;101944.38;4882373;29;20063;-91
2021/06/13 06:13:53;;;;;;;7.97;3.38;;;;;;;13.90;65.39;101949.63;4863797;29;20089;-91
2021/06/13 06:21:53;;;;;;;7.68;3.33;;;;;;;14.44;63.16;101953.84;4851239;29;20063;-91
2021/06/13 06:24:30;;;;;;;7.63;3.28;;;;;;;14.61;61.89;101957.28;4877542;29;20220;-91
2021/06/13 06:34:03;;;;;;;6.68;3.13;;;;;;;14.96;59.71;101964.16;4882580;29;20064;-92
2021/06/13 06:36:42;;;;;;;6.97;3.00;;;;;;;14.93;59.52;101965.91;4842568;29;20096;-91
2021/06/13 06:50:50;;;;;;;6.82;3.08;;;;;;;15.67;56.48;101963.63;4854093;29;20501;-93
2021/06/13 07:07:56;;;;;;;11.25;3.67;;;;;;;14.86;57.74;101994.09;4870506;29;20052;-90
2021/06/13 07:10:29;;;;;;;6.18;2.53;;;;;;;14.72;58.72;101997.69;4857707;29;22113;-93
2021/06/13 07:13:14;;;;;;;14.77;3.72;;;;;;;14.66;59.08;101995.06;4851860;29;20063;-91
2021/06/13 07:21:44;;;;;;;3.25;2.15;;;;;;;14.87;57.72;101994.09;4857077;29;20053;-91
2021/06/13 07:24:19;;;;;;;5.32;2.38;;;;;;;15.05;55.38;101995.72;4873908;29;20056;-91
2021/06/13 07:29:43;;;;;;;6.40;2.22;;;;;;;15.69;53.14;101995.28;4859291;29;20055;-93
2021/06/13 07:32:28;;;;;;;4.70;2.08;;;;;;;16.23;52.37;102000.06;4839283;29;20054;-89
2021/06/13 08:20:56;;;;;;;3.13;1.92;;;;;;;19.94;40.12;102014.47;4853991;29;20056;-92
2021/06/13 08:28:56;;;;;;;4.88;2.30;;;;;;;19.87;40.18;102012.91;4851201;29;20084;-92
2021/06/13 08:31:25;;;;;;;5.85;2.03;;;;;;;20.53;38.87;102023.50;4842634;29;20050;-93
2021/06/13 08:41:37;;;;;;;5.22;2.33;;;;;;;19.26;40.97;102032.06;4845815;29;20582;-92
2021/06/13 08:44:06;;;;;;;4.63;2.10;;;;;;;20.31;39.02;102023.22;4849979;29;20161;-93
2021/06/13 08:56:12;;;;;;;4.57;1.88;;;;;;;24.60;30.91;102028.03;4860009;29;20175;-91
2021/06/13 08:58:51;;;;;;;4.82;1.83;;;;;;;24.10;31.64;102026.69;4851524;29;20116;-93
2021/06/13 09:13:15;;;;;;;5.30;2.28;;;;;;;24.93;29.49;102027.41;4840004;29;20160;-89
2021/06/13 09:16:03;;;;;;;6.80;2.03;;;;;;;25.98;28.31;102021.34;4843702;29;20067;-88
2021/06/13 09:18:41;;;;;;;3.47;2.00;;;;;;;25.93;28.31;102034.16;4835942;29;20049;-90
2021/06/13 09:21:29;;;;;;;3.33;1.80;;;;;;;26.18;27.88;102027.50;4855515;29;20048;-88
2021/06/13 09:24:44;;;;;;;5.68;2.08;;;;;;;26.46;26.03;102029.56;4860724;29;20057;-89
2021/06/13 09:27:13;;;;;;;4.43;2.20;;;;;;;26.01;27.39;102031.03;4837179;29;20053;-92
2021/06/13 09:29:54;;;;;;;4.00;2.10;;;;;;;25.87;27.09;102034.47;4863192;29;20072;-89
2021/06/13 09:32:22;;;;;;;5.25;2.10;;;;;;;25.69;27.50;102031.75;4832974;29;20548;-90
2021/06/13 09:35:36;;;;;;;6.00;2.22;;;;;;;25.53;27.26;102038.88;4854206;29;20042;-88
2021/06/13 09:38:36;;;;;;;4.25;2.17;;;;;;;26.13;26.61;102030.44;4862141;29;20603;-88
2021/06/13 09:41:12;;;;;;;4.55;2.47;;;;;;;26.81;25.84;102034.84;4878735;29;20114;-86
2021/06/13 09:48:03;;;;;;;4.28;1.63;;;;;;;25.92;27.03;102035.09;4812684;29;20956;-89
2021/06/13 09:59:50;;;;;;;6.13;2.38;;;;;;;26.60;24.50;102036.88;4861095;29;20049;-89
2021/06/13 10:05:29;;;;;;;6.50;2.45;;;;;;;27.79;24.18;102026.59;4855897;29;20045;-90
2021/06/13 10:08:27;;;;;;;3.55;2.22;;;;;;;27.99;23.31;102034.31;4844890;29;20687;-89
2021/06/13 10:16:58;;;;;;;4.15;2.08;;;;;;;28.70;23.16;102045.25;4817453;29;20102;-90
2021/06/13 10:22:33;;;;;;;;;;;;;;;29.99;21.47;102032.28;4853479;29;20163;-90
2021/06/13 10:25:17;;;;;;;3.92;2.17;;;;;;;30.31;20.92;102037.22;4853450;29;20059;-91
2021/06/13 10:27:47;;;;;;;3.05;2.00;;;;;;;30.93;20.13;102036.38;4836193;29;20525;-87
2021/06/13 10:30:20;;;;;;;4.05;1.92;;;;;;;30.92;19.82;102028.38;4830645;29;20118;-91
2021/06/13 10:35:40;;;;;;;2.42;2.22;;;;;;;31.70;19.15;102043.28;4831731;29;20054;-92
2021/06/13 10:38:43;;;;;;;3.63;2.10;;;;;;;32.76;18.59;102025.94;4850598;29;20055;-91
2021/06/13 11:28:57;;;;;;;2.90;1.73;;;;;;;32.78;17.99;102052.94;4825543;29;20056;-92
2021/06/13 11:31:28;;;;;;;3.08;2.20;;;;;;;30.74;19.81;102047.69;4834831;29;20128;-91
2021/06/13 11:33:58;;;;;;;4.68;2.78;;;;;;;30.62;20.33;102041.31;4826549;29;20057;-92
2021/06/13 11:50:28;;;;;;;2.45;2.10;;;;;;;31.04;19.66;102040.97;4844055;29;20085;-91
2021/06/13 12:09:41;;;;;;;2.65;2.00;;;;;;;35.59;16.05;102025.69;4838878;29;20114;-91
2021/06/13 12:55:16;;;;;;;4.40;2.80;;;;;;;36.19;15.54;102010.03;4891997;23;55867;-83
2021/06/13 12:57:47;;;;;;;3.47;2.15;;;;;;;36.47;15.36;102002.75;4886129;29;20053;-87
2021/06/13 13:00:23;;;;;;;2.85;2.28;;;;;;;37.50;13.95;101998.88;4878156;29;20616;-86
2021/06/13 13:03:13;;;;;;;7.18;2.30;;;;;;;37.15;14.24;102015.09;4877808;29;20048;-83
2021/06/13 13:05:43;;;;;;;3.50;2.08;;;;;;;37.46;13.85;102002.91;4865353;29;20056;-83
2021/06/13 13:08:21;;;;;;;2.55;1.90;;;;;;;36.31;15.03;101994.34;4869809;29;20198;-86
2021/06/13 13:11:06;;;;;;;5.13;2.60;;;;;;;35.00;15.67;102005.75;4876467;29;20504;-84
2021/06/13 13:13:42;;;;;;;2.80;1.80;;;;;;;34.17;16.12;101994.16;4870261;29;20323;-82
2021/06/13 13:16:30;;;;;;;3.65;2.72;;;;;;;35.06;15.61;101991.56;4872589;29;20346;-86
2021/06/13 13:19:00;;;;;;;3.63;2.80;;;;;;;36.07;15.00;101993.03;4875303;29;20044;-82
2021/06/13 13:21:36;;;;;;;3.42;2.33;;;;;;;35.00;15.62;101991.28;4883613;29;20500;-85
2021/06/13 13:24:07;;;;;;;3.45;1.90;;;;;;;34.93;16.10;101991.00;4882262;29;20092;-83
2021/06/13 13:26:35;;;;;;;4.80;3.03;;;;;;;36.03;15.20;101980.72;4899932;29;20556;-84
2021/06/13 13:29:02;;;;;;;3.67;2.60;;;;;;;37.15;14.43;101974.16;4863862;29;20055;-84
2021/06/13 13:31:31;;;;;;;4.97;2.38;;;;;;;37.73;13.65;101985.50;4884259;29;22194;-87
2021/06/13 13:34:05;;;;;;;3.08;2.60;;;;;;;38.14;13.11;101972.09;4855748;29;20052;-81
2021/06/13 13:36:40;;;;;;;3.38;2.00;;;;;;;38.79;13.20;101975.28;4891418;29;20139;-84
2021/06/13 13:39:15;;;;;;;3.17;1.80;;;;;;;39.23;12.64;101974.97;4886421;29;20056;-82
2021/06/13 13:42:00;;;;;;;4.03;2.20;;;;;;;38.99;13.05;101962.94;4882087;29;20057;-85
2021/06/13 13:44:31;;;;;;;2.33;2.10;;;;;;;39.36;12.66;101975.31;4887867;29;20044;-83
2021/06/13 13:47:10;;;;;;;4.32;2.85;;;;;;;39.13;12.64;101975.09;4880348;29;20139;-85
2021/06/13 13:49:43;;;;;;;2.92;2.13;;;;;;;39.33;12.33;101966.56;4900148;29;20364;-82
2021/06/13 13:52:25;;;;;;;3.75;2.10;;;;;;;39.09;12.31;101968.25;4877458;29;20048;-86
2021/06/13 13:55:11;;;;;;;3.42;2.95;;;;;;;39.45;12.18;101965.19;4881758;29;20056;-86
2021/06/13 13:57:50;;;;;;;4.28;2.60;;;;;;;39.49;12.16;101972.03;4880015;29;20527;-83
2021/06/13 14:00:20;;;;;;;4.47;2.33;;;;;;;38.55;13.27;101961.34;4868232;29;20131;-85
2021/06/13 14:02:50;;;;;;;3.47;2.47;;;;;;;38.45;12.88;101966.09;4871331;29;20044;-84
2021/06/13 14:05:23;;;;;;;3.50;2.85;;;;;;;38.84;13.14;101961.91;4870930;29;20543;-85
2021/06/13 14:07:51;;;;;;;2.47;1.70;;;;;;;39.10;12.59;101958.16;4887390;29;20055;-82
2021/06/13 14:10:20;;;;;;;5.50;2.42;;;;;;;39.48;12.39;101962.09;4864497;29;20052;-82
2021/06/13 14:12:46;;;;;;;2.67;1.75;;;;;;;39.86;11.93;101956.88;4886511;29;20054;-85
2021/06/13 14:15:25;;;;;;;3.10;2.05;;;;;;;40.29;11.65;101956.56;4871013;29;20404;-86
2021/06/13 14:17:51;;;;;;;3.45;2.00;;;;;;;39.82;11.54;101949.19;4896380;29;20188;-89
2021/06/13 14:20:30;;;;;;;3.42;3.08;;;;;;;38.51;13.09;101961.81;4873526;29;20391;-81
2021/06/13 14:23:00;;;;;;;3.22;2.30;;;;;;;38.01;13.51;101953.41;4888769;29;20123;-84
2021/06/13 14:25:27;;;;;;;3.85;2.15;;;;;;;37.96;13.30;101947.59;4871163;29;20059;-83
2021/06/13 14:27:55;;;;;;;2.90;1.95;;;;;;;37.56;13.39;101951.78;4884662;29;20551;-81
2021/06/13 14:30:23;;;;;;;4.30;2.45;;;;;;;37.52;13.70;101955.84;4871461;29;20044;-82
2021/06/13 14:32:56;;;;;;;3.65;2.20;;;;;;;37.21;13.58;101950.81;4889734;29;20074;-82
2021/06/13 14:35:26;;;;;;;5.05;3.10;;;;;;;37.34;13.70;101955.88;4883097;29;20112;-87
2021/06/13 14:37:55;;;;;;;1.88;1.58;;;;;;;37.40;13.54;101955.25;4903424;29;20076;-85
2021/06/13 14:40:25;;;;;;;2.53;2.17;;;;;;;36.73;14.18;101950.19;4872188;29;20048;-84
2021/06/13 14:42:52;;;;;;;2.75;2.08;;;;;;;34.69;15.49;101951.41;4872170;29;20155;-82
2021/06/13 14:45:20;;;;;;;2.65;2.22;;;;;;;33.95;16.55;101953.47;4879676;29;20214;-83
2021/06/13 14:47:48;;;;;;;4.60;2.30;;;;;;;33.95;16.14;101945.31;4872951;29;20140;-83
2021/06/13 14:50:15;;;;;;;2.72;1.90;;;;;;;34.47;15.91;101944.34;4854177;29;20048;-85
2021/06/13 14:52:45;;;;;;;3.25;2.45;;;;;;;34.67;15.62;101948.00;4864411;29;20048;-84
2021/06/13 14:55:17;;;;;;;2.92;2.10;;;;;;;34.36;16.15;101941.78;4877028;29;20060;-85
2021/06/13 14:57:44;;;;;;;2.13;1.70;;;;;;;34.02;16.42;101948.34;4861294;29;20075;-83
2021/06/13 15:00:14;;;;;;;4.40;2.78;;;;;;;33.69;16.73;101941.28;4870265;29;20060;-85
2021/06/13 15:02:41;;;;;;;3.47;2.78;;;;;;;32.25;18.42;101946.00;4881920;29;20057;-84
2021/06/13 15:05:12;;;;;;;2.22;2.03;;;;;;;31.43;19.15;101936.19;4872445;29;20197;-84
2021/06/13 15:07:44;;;;;;;4.97;2.30;;;;;;;31.61;18.95;101927.59;4867592;29;20187;-83
2021/06/13 15:10:12;;;;;;;4.22;2.88;;;;;;;32.10;18.46;101931.81;4874507;29;20087;-85
2021/06/13 15:12:38;;;;;;;4.10;2.58;;;;;;;32.26;18.23;101923.34;4879713;29;20056;-85
2021/06/13 15:15:06;;;;;;;3.55;2.42;;;;;;;32.28;18.38;101915.97;4878794;29;20055;-85
2021/06/13 15:17:35;;;;;;;2.53;2.08;;;;;;;32.24;18.40;101916.31;4899767;29;20076;-85
2021/06/13 15:20:01;;;;;;;4.20;2.10;;;;;;;32.20;18.21;101912.16;4880774;29;20063;-84
2021/06/13 15:25:13;;;;;;;3.15;2.30;;;;;;;32.04;18.73;101910.66;4884017;29;20412;-84
2021/06/13 15:27:46;;;;;;;2.50;2.30;;;;;;;31.77;18.86;101916.44;4865912;29;20056;-85
2021/06/13 15:30:14;;;;;;;4.30;2.05;;;;;;;31.46;19.16;101910.69;4882656;29;20052;-84
2021/06/13 15:32:42;;;;;;;4.70;2.13;;;;;;;31.45;19.29;101909.00;4874464;29;20047;-86
2021/06/13 15:35:15;;;;;;;6.13;3.22;;;;;;;31.41;19.74;101915.63;4878026;29;20056;-86
2021/06/13 15:37:44;;;;;;;2.22;2.10;;;;;;;31.19;19.68;101901.06;4888597;29;20070;-86
2021/06/13 15:40:12;;;;;;;6.05;2.47;;;;;;;30.94;20.01;101908.31;4881969;29;20056;-85
2021/06/13 15:42:39;;;;;;;2.95;2.05;;;;;;;30.46;20.24;101908.28;4883890;29;20055;-85
2021/06/13 15:45:15;;;;;;;4.25;2.78;;;;;;;29.77;21.30;101906.88;4887034;29;20202;-85
2021/06/13 15:47:44;;;;;;;4.75;2.50;;;;;;;29.08;22.19;101907.09;4866169;29;20129;-86
2021/06/13 15:50:14;;;;;;;4.88;2.25;;;;;;;27.92;23.36;101895.69;4885796;29;20052;-86
2021/06/13 15:52:44;;;;;;;4.13;1.80;;;;;;;26.38;25.44;101900.25;4865467;29;20044;-84
2021/06/13 15:55:13;;;;;;;6.15;2.83;;;;;;;25.29;27.05;101901.53;4876244;29;20060;-85
2021/06/13 15:57:44;;;;;;;3.63;2.50;;;;;;;24.69;27.89;101900.06;4886604;29;20479;-86
2021/06/13 16:00:13;;;;;;;6.32;3.17;;;;;;;24.33;28.75;101896.38;4866836;29;20094;-84
2021/06/13 16:02:42;;;;;;;3.78;3.33;;;;;;;23.90;29.10;101891.19;4895581;29;20056;-85
2021/06/13 16:05:12;;;;;;;5.80;3.50;;;;;;;23.61;29.61;101890.69;4886156;29;20072;-86
2021/06/13 16:07:43;;;;;;;3.53;2.28;;;;;;;23.35;30.24;101889.16;4873464;29;21040;-85
2021/06/13 16:10:13;;;;;;;5.07;3.15;;;;;;;23.15;30.94;101892.66;4876585;29;20060;-85
2021/06/13 16:12:40;;;;;;;5.22;2.20;;;;;;;22.99;30.83;101892.41;4903747;29;20626;-85
2021/06/13 16:15:14;;;;;;;6.57;4.65;;;;;;;22.90;31.38;101888.31;4886828;29;20045;-85
2021/06/13 16:17:40;;;;;;;5.38;2.60;;;;;;;22.89;31.78;101893.72;4884545;29;20056;-86
2021/06/13 16:20:12;;;;;;;4.18;2.28;;;;;;;22.85;31.57;101892.97;4890211;29;20130;-84
2021/06/13 16:22:44;;;;;;;6.28;2.90;;;;;;;22.75;31.60;101894.25;4880444;29;20746;-84
2021/06/13 16:25:14;;;;;;;6.07;2.90;;;;;;;22.70;31.50;101893.63;4884411;29;20175;-85
2021/06/13 16:27:41;;;;;;;3.22;2.30;;;;;;;22.63;31.58;101883.19;4866540;29;20059;-84
2021/06/13 16:30:13;;;;;;;7.47;5.68;;;;;;;22.50;32.09;101881.91;4870794;29;20048;-86
2021/06/13 16:32:43;;;;;;;5.93;3.20;;;;;;;22.46;32.64;101886.53;4866713;29;20049;-87
2021/06/13 16:35:32;;;;;;;4.43;2.17;;;;;;;22.44;33.18;101877.69;4883410;29;20044;-86
2021/06/13 16:38:01;;;;;;;7.68;3.28;;;;;;;22.36;33.28;101881.59;4884211;29;20067;-86
2021/06/13 16:40:28;;;;;;;7.78;2.67;;;;;;;22.31;33.32;101877.25;4860635;29;20116;-84
2021/06/13 16:43:11;;;;;;;3.38;2.40;;;;;;;22.28;33.61;101873.84;4875785;29;20048;-86
2021/06/13 16:45:44;;;;;;;7.75;6.95;;;;;;;22.19;33.88;101876.88;4872012;29;20052;-84
2021/06/13 16:48:15;;;;;;;5.60;3.10;;;;;;;22.10;33.91;101878.97;4881822;29;20147;-84
2021/06/13 16:50:51;;;;;;;7.03;3.08;;;;;;;22.02;33.83;101878.41;4883102;29;20058;-84
2021/06/13 16:53:18;;;;;;;2.95;2.42;;;;;;;22.01;33.73;101883.78;4899983;29;20048;-84
2021/06/13 16:55:46;;;;;;;5.30;3.92;;;;;;;22.01;34.01;101878.47;4901297;29;20051;-85
2021/06/13 16:58:19;;;;;;;4.30;2.75;;;;;;;21.98;34.19;101882.97;4885792;29;20104;-85
2021/06/13 17:00:53;;;;;;;5.15;2.97;;;;;;;21.93;34.67;101886.75;4888790;29;20044;-85
2021/06/13 17:03:25;;;;;;;5.00;3.13;;;;;;;21.86;34.32;101880.75;4893199;29;20072;-84
2021/06/13 17:05:52;;;;;;;5.43;2.50;;;;;;;21.79;34.37;101882.78;4877321;29;20151;-84
2021/06/13 17:08:22;;;;;;;5.82;2.50;;;;;;;21.73;34.87;101888.34;4883883;29;20060;-86
2021/06/13 17:10:53;;;;;;;4.47;2.15;;;;;;;21.65;34.85;101885.06;4892585;29;20658;-84
2021/06/13 17:13:20;;;;;;;6.07;2.47;;;;;;;21.57;34.90;101882.69;4880324;29;20048;-83
2021/06/13 17:15:50;;;;;;;4.10;2.28;;;;;;;21.51;35.40;101888.22;4877880;29;20043;-84
2021/06/13 17:18:18;;;;;;;5.28;2.78;;;;;;;21.51;35.24;101895.31;4889441;29;20103;-84
2021/06/13 17:20:46;;;;;;;5.70;2.65;;;;;;;21.53;35.13;101885.50;4885982;29;20055;-85
2021/06/13 17:23:15;;;;;;;1.77;1.63;;;;;;;21.56;35.03;101896.06;4879748;29;20032;-84
2021/06/13 17:25:45;;;;;;;6.07;2.85;;;;;;;21.54;35.03;101892.56;4864407;29;20071;-86
2021/06/13 17:28:17;;;;;;;25.63;19.45;;;;;;;21.51;35.17;101890.00;4865847;29;20056;-85
2021/06/13 17:30:49;;;;;;;3.13;2.70;;;;;;;21.55;35.06;101886.31;4873220;29;20419;-86
2021/06/13 17:33:20;;;;;;;3.78;2.35;;;;;;;21.53;35.07;101886.34;4903471;29;20048;-85
2021/06/13 17:36:19;;;;;;;5.72;3.95;;;;;;;21.45;35.38;101891.94;4884232;29;20178;-86
2021/06/13 17:38:47;;;;;;;5.82;3.70;;;;;;;21.38;35.45;101893.09;4884216;29;20056;-85
2021/06/13 17:41:43;;;;;;;3.25;2.38;;;;;;;21.32;35.68;101887.97;4880034;29;20084;-86
2021/06/13 17:44:18;;;;;;;4.82;2.58;;;;;;;21.29;35.94;101882.75;4875759;29;20051;-86
2021/06/13 17:46:52;;;;;;;5.53;3.58;;;;;;;21.24;35.97;101882.06;4889541;29;20734;-86
2021/06/13 17:49:23;;;;;;;5.93;2.40;;;;;;;21.18;36.07;101875.13;4887629;29;20311;-85
2021/06/13 17:51:53;;;;;;;5.28;2.63;;;;;;;21.14;36.30;101878.81;4885549;29;20056;-85
2021/06/13 17:54:21;;;;;;;5.63;3.15;;;;;;;21.10;36.37;101878.03;4873204;29;20056;-86
2021/06/13 17:56:49;;;;;;;8.40;3.35;;;;;;;21.03;36.61;101881.84;4902094;29;20052;-85
2021/06/13 17:59:19;;;;;;;7.78;4.90;;;;;;;20.95;36.37;101882.09;4871344;29;20092;-86
2021/06/13 18:01:52;;;;;;;5.18;3.47;;;;;;;20.88;36.49;101879.69;4881781;29;20040;-86
2021/06/13 18:04:23;;;;;;;4.70;2.60;;;;;;;20.81;36.54;101879.03;4868452;29;20047;-85
2021/06/13 18:06:52;;;;;;;4.60;3.35;;;;;;;20.76;36.84;101878.28;4896987;29;20782;-86
2021/06/13 18:09:23;;;;;;;5.90;2.42;;;;;;;20.73;37.30;101878.38;4901620;29;20040;-85
2021/06/13 18:11:52;;;;;;;6.35;2.92;;;;;;;20.68;37.56;101878.50;4867944;29;20372;-85
2021/06/13 18:14:23;;;;;;;5.22;2.88;;;;;;;20.64;37.73;101880.38;4872152;29;20126;-85
2021/06/13 18:16:50;;;;;;;7.03;2.80;;;;;;;20.59;37.94;101878.81;4882752;29;20748;-86
2021/06/13 18:19:17;;;;;;;3.92;1.67;;;;;;;20.50;38.10;101875.50;4870295;29;20052;-85
2021/06/13 18:21:46;;;;;;;16.55;12.70;;;;;;;20.45;38.34;101871.25;4872931;29;20056;-85
2021/06/13 18:24:13;;;;;;;3.33;2.35;;;;;;;20.40;38.34;101878.50;4888781;29;20032;-86
2021/06/13 18:26:40;;;;;;;5.47;2.28;;;;;;;20.33;38.50;101880.47;4887848;29;20063;-85
2021/06/13 18:29:09;;;;;;;7.07;4.18;;;;;;;20.25;38.68;101870.06;4882290;29;20063;-85
2021/06/13 18:31:41;;;;;;;3.58;2.42;;;;;;;20.17;38.63;101872.09;4872549;29;20049;-86
2021/06/13 18:34:12;;;;;;;3.88;2.40;;;;;;;20.11;38.95;101874.94;4873573;29;20053;-86
2021/06/13 18:36:41;;;;;;;4.45;2.72;;;;;;;20.03;39.16;101872.50;4879878;29;20124;-85
2021/06/13 18:39:10;;;;;;;7.43;3.60;;;;;;;19.96;39.29;101870.94;4888338;29;20056;-85
2021/06/13 18:41:37;;;;;;;5.38;2.55;;;;;;;19.91;39.28;101867.53;4879038;29;20083;-85
2021/06/13 18:44:05;;;;;;;7.13;5.05;;;;;;;19.86;39.53;101869.47;4882250;29;20048;-86
2021/06/13 18:46:33;;;;;;;4.00;3.13;;;;;;;19.79;39.58;101877.56;4900687;29;20048;-86
2021/06/13 18:49:03;;;;;;;15.30;11.32;;;;;;;19.70;39.95;101867.19;4887334;29;20044;-85
2021/06/13 18:51:30;;;;;;;6.63;3.20;;;;;;;19.64;39.95;101878.00;4900195;29;20066;-86
2021/06/13 18:53:58;;;;;;;8.85;7.05;;;;;;;19.59;40.22;101871.94;4898494;29;20048;-86
2021/06/13 18:56:34;;;;;;;5.53;2.72;;;;;;;19.55;40.18;101870.28;4877099;29;20182;-85
2021/06/13 18:59:07;;;;;;;4.93;2.85;;;;;;;19.47;40.40;101871.34;4903201;29;20695;-85
2021/06/13 19:01:38;;;;;;;5.40;2.90;;;;;;;19.42;40.82;101877.69;4881790;29;20055;-86
2021/06/13 19:04:10;;;;;;;4.55;2.78;;;;;;;19.37;41.06;101880.47;4876095;29;20056;-86
2021/06/13 19:06:37;;;;;;;6.60;2.58;;;;;;;19.31;41.05;101881.50;4875841;29;20055;-86
2021/06/13 19:09:11;;;;;;;5.88;4.43;;;;;;;19.28;41.53;101880.69;4888886;29;20049;-85
2021/06/13 19:11:39;;;;;;;7.72;3.05;;;;;;;19.21;41.58;101873.81;4872781;29;20056;-85
2021/06/13 19:14:06;;;;;;;3.38;2.60;;;;;;;19.09;41.93;101873.22;4870996;29;20133;-85
2021/06/13 19:16:34;;;;;;;4.32;2.53;;;;;;;19.00;42.32;101871.66;4884310;29;20057;-84
2021/06/13 19:19:03;;;;;;;4.65;2.65;;;;;;;18.91;42.63;101871.03;4865500;29;20052;-85
2021/06/13 19:21:32;;;;;;;5.07;3.33;;;;;;;18.84;42.73;101872.94;4881554;29;20054;-85
2021/06/13 19:24:08;;;;;;;6.50;3.90;;;;;;;18.75;43.07;101865.19;4871285;29;20055;-84
2021/06/13 19:26:35;;;;;;;5.22;3.42;;;;;;;18.67;43.27;101862.72;4871465;29;20781;-84
2021/06/13 19:29:04;;;;;;;6.07;2.55;;;;;;;18.62;43.47;101864.59;4879248;29;20439;-85
2021/06/13 19:31:31;;;;;;;5.35;2.92;;;;;;;18.57;43.57;101859.41;4883190;29;20462;-85
2021/06/13 19:34:01;;;;;;;5.90;4.25;;;;;;;18.52;43.62;101859.53;4864968;29;22732;-85
2021/06/13 19:36:29;;;;;;;6.68;3.80;;;;;;;18.48;43.96;101863.13;4871128;29;20052;-85
2021/06/13 19:38:58;;;;;;;5.90;3.20;;;;;;;18.43;44.13;101861.50;4869449;29;20056;-84
2021/06/13 19:41:25;;;;;;;4.82;3.22;;;;;;;18.38;44.34;101868.69;4885485;29;20060;-85
2021/06/13 19:44:06;;;;;;;4.32;2.67;;;;;;;18.29;45.08;101862.69;4872362;29;20062;-85
2021/06/13 19:46:40;;;;;;;4.28;3.03;;;;;;;18.23;45.01;101861.94;4885786;29;20052;-85
2021/06/13 19:49:07;;;;;;;5.53;3.10;;;;;;;18.18;45.32;101869.97;4878495;29;20048;-85
2021/06/13 19:51:55;;;;;;;7.10;2.83;;;;;;;18.10;45.60;101861.34;4890317;29;20059;-85
2021/06/13 19:54:25;;;;;;;5.90;3.00;;;;;;;18.06;45.81;101871.13;4876539;29;20158;-85
2021/06/13 19:56:57;;;;;;;2.67;2.38;;;;;;;18.00;45.83;101863.28;4899811;29;20112;-85